sensor_id;sensor_type;location;lat;lon;timestamp;pressure;altitude;pressure_sealevel;temperature;humidity
76114;BME280;64845;53.086;5.834;2022-12-07T00:01:24;101744.38;;;2.98;82.12
76114;BME280;64845;53.086;5.834;2022-12-07T00:03:52;101738.22;;;2.99;81.71
76114;BME280;64845;53.086;5.834;2022-12-07T00:06:18;101746.16;;;3.00;81.81
76114;BME280;64845;53.086;5.834;2022-12-07T00:08:45;101741.75;;;3.01;81.85
76114;BME280;64845;53.086;5.834;2022-12-07T00:11:16;101756.69;;;2.99;82.09
76114;BME280;64845;53.086;5.834;2022-12-07T00:13:42;101746.13;;;2.99;81.88
76114;BME280;64845;53.086;5.834;2022-12-07T00:16:16;101754.06;;;2.99;82.23
76114;BME280;64845;53.086;5.834;2022-12-07T00:18:42;101754.06;;;2.99;81.99
76114;BME280;64845;53.086;5.834;2022-12-07T00:21:13;101746.13;;;2.97;82.14
76114;BME280;64845;53.086;5.834;2022-12-07T00:23:40;101744.38;;;2.96;82.04
76114;BME280;64845;53.086;5.834;2022-12-07T00:26:08;101746.97;;;2.95;81.55
76114;BME280;64845;53.086;5.834;2022-12-07T00:28:34;101747.88;;;2.95;81.65
76114;BME280;64845;53.086;5.834;2022-12-07T00:31:04;101745.25;;;2.94;81.80
76114;BME280;64845;53.086;5.834;2022-12-07T00:33:30;101746.13;;;2.94;81.68
76114;BME280;64845;53.086;5.834;2022-12-07T00:35:56;101748.75;;;2.96;82.01
76114;BME280;64845;53.086;5.834;2022-12-07T00:38:22;101743.50;;;2.97;81.58
76114;BME280;64845;53.086;5.834;2022-12-07T00:41:02;101751.41;;;2.97;82.07
76114;BME280;64845;53.086;5.834;2022-12-07T00:43:28;101753.16;;;2.94;81.67
76114;BME280;64845;53.086;5.834;2022-12-07T00:45:54;101748.75;;;2.93;82.29
76114;BME280;64845;53.086;5.834;2022-12-07T00:48:21;101743.47;;;2.93;81.38
76114;BME280;64845;53.086;5.834;2022-12-07T00:50:47;101742.56;;;2.92;81.60
76114;BME280;64845;53.086;5.834;2022-12-07T00:53:12;101734.66;;;2.92;81.73
76114;BME280;64845;53.086;5.834;2022-12-07T00:55:37;101727.66;;;2.93;81.67
76114;BME280;64845;53.086;5.834;2022-12-07T00:58:03;101726.75;;;2.92;81.29
76114;BME280;64845;53.086;5.834;2022-12-07T01:00:29;101726.75;;;2.91;81.51
76114;BME280;64845;53.086;5.834;2022-12-07T01:02:54;101724.97;;;2.91;81.92
76114;BME280;64845;53.086;5.834;2022-12-07T01:05:20;101727.59;;;2.88;81.61
76114;BME280;64845;53.086;5.834;2022-12-07T01:07:45;101722.28;;;2.83;81.85
76114;BME280;64845;53.086;5.834;2022-12-07T01:10:12;101722.25;;;2.79;81.47
76114;BME280;64845;53.086;5.834;2022-12-07T01:12:38;101717.84;;;2.73;81.86
76114;BME280;64845;53.086;5.834;2022-12-07T01:15:03;101714.28;;;2.68;81.35
76114;BME280;64845;53.086;5.834;2022-12-07T01:17:29;101716.00;;;2.64;81.83
76114;BME280;64845;53.086;5.834;2022-12-07T01:19:54;101715.06;;;2.61;81.91
76114;BME280;64845;53.086;5.834;2022-12-07T01:22:19;101722.09;;;2.57;81.40
76114;BME280;64845;53.086;5.834;2022-12-07T01:24:45;101711.50;;;2.55;81.86
76114;BME280;64845;53.086;5.834;2022-12-07T01:27:12;101712.41;;;2.56;81.43
76114;BME280;64845;53.086;5.834;2022-12-07T01:29:37;101719.47;;;2.60;81.38
76114;BME280;64845;53.086;5.834;2022-12-07T01:32:03;101726.56;;;2.67;81.54
76114;BME280;64845;53.086;5.834;2022-12-07T01:34:28;101731.88;;;2.74;81.42
76114;BME280;64845;53.086;5.834;2022-12-07T01:36:53;101730.16;;;2.77;81.51
76114;BME280;64845;53.086;5.834;2022-12-07T01:39:19;101715.19;;;2.76;81.76
76114;BME280;64845;53.086;5.834;2022-12-07T01:41:44;101718.69;;;2.69;81.46
76114;BME280;64845;53.086;5.834;2022-12-07T01:46:53;101716.78;;;2.55;80.92
76114;BME280;64845;53.086;5.834;2022-12-07T01:49:42;101716.78;;;2.52;81.62
76114;BME280;64845;53.086;5.834;2022-12-07T01:52:23;101732.56;;;2.51;81.26
76114;BME280;64845;53.086;5.834;2022-12-07T01:54:52;101742.22;;;2.47;81.76
76114;BME280;64845;53.086;5.834;2022-12-07T01:57:20;101737.88;;;2.52;81.39
76114;BME280;64845;53.086;5.834;2022-12-07T01:59:48;101751.09;;;2.57;81.30
76114;BME280;64845;53.086;5.834;2022-12-07T02:02:43;101744.13;;;2.64;81.98
76114;BME280;64845;53.086;5.834;2022-12-07T02:05:10;101739.81;;;2.72;81.47
76114;BME280;64845;53.086;5.834;2022-12-07T02:07:37;101725.78;;;2.79;82.01
76114;BME280;64845;53.086;5.834;2022-12-07T02:10:20;101708.22;;;2.86;82.22
76114;BME280;64845;53.086;5.834;2022-12-07T02:12:49;101717.94;;;2.90;82.02
76114;BME280;64845;53.086;5.834;2022-12-07T02:15:16;101707.41;;;2.93;82.37
76114;BME280;64845;53.086;5.834;2022-12-07T02:17:52;101706.53;;;2.94;82.48
76114;BME280;64845;53.086;5.834;2022-12-07T02:20:33;101698.63;;;2.94;82.32
76114;BME280;64845;53.086;5.834;2022-12-07T02:23:12;101692.47;;;2.95;82.42
76114;BME280;64845;53.086;5.834;2022-12-07T02:26:01;101691.63;;;2.96;82.37
76114;BME280;64845;53.086;5.834;2022-12-07T02:28:31;101691.59;;;2.98;82.56
76114;BME280;64845;53.086;5.834;2022-12-07T02:31:05;101695.16;;;2.98;82.15
76114;BME280;64845;53.086;5.834;2022-12-07T02:33:36;101703.94;;;2.97;82.37
76114;BME280;64845;53.086;5.834;2022-12-07T02:38:50;101708.38;;;3.01;82.27
76114;BME280;64845;53.086;5.834;2022-12-07T02:41:33;101717.22;;;3.14;81.91
76114;BME280;64845;53.086;5.834;2022-12-07T02:44:02;101711.13;;;3.20;82.45
76114;BME280;64845;53.086;5.834;2022-12-07T02:46:33;101711.13;;;3.20;82.25
76114;BME280;64845;53.086;5.834;2022-12-07T02:49:02;101713.75;;;3.20;81.90
76114;BME280;64845;53.086;5.834;2022-12-07T02:51:32;101713.72;;;3.18;82.03
76114;BME280;64845;53.086;5.834;2022-12-07T02:53:58;101699.66;;;3.18;82.09
76114;BME280;64845;53.086;5.834;2022-12-07T03:02:41;101689.09;;;3.18;81.53
76114;BME280;64845;53.086;5.834;2022-12-07T03:10:57;101682.03;;;3.15;81.72
76114;BME280;64845;53.086;5.834;2022-12-07T03:13:37;101685.53;;;3.14;81.73
76114;BME280;64845;53.086;5.834;2022-12-07T03:16:25;101679.41;;;3.12;81.63
76114;BME280;64845;53.086;5.834;2022-12-07T03:18:58;101686.41;;;3.12;81.43
76114;BME280;64845;53.086;5.834;2022-12-07T03:21:35;101686.41;;;3.09;81.37
76114;BME280;64845;53.086;5.834;2022-12-07T03:24:08;101686.38;;;3.06;81.60
76114;BME280;64845;53.086;5.834;2022-12-07T03:26:37;101688.16;;;3.04;81.22
76114;BME280;64845;53.086;5.834;2022-12-07T03:29:13;101681.97;;;3.01;81.41
76114;BME280;64845;53.086;5.834;2022-12-07T03:31:43;101680.22;;;3.00;81.43
76114;BME280;64845;53.086;5.834;2022-12-07T03:36:47;101674.03;;;2.98;80.89
76114;BME280;64845;53.086;5.834;2022-12-07T03:39:24;101674.00;;;2.97;81.08
76114;BME280;64845;53.086;5.834;2022-12-07T03:41:51;101679.28;;;2.95;81.11
76114;BME280;64845;53.086;5.834;2022-12-07T03:44:18;101666.97;;;2.93;81.23
76114;BME280;64845;53.086;5.834;2022-12-07T03:47:04;101675.72;;;2.89;80.42
76114;BME280;64845;53.086;5.834;2022-12-07T03:49:44;101673.06;;;2.85;81.40
76114;BME280;64845;53.086;5.834;2022-12-07T03:54:53;101673.91;;;2.80;80.60
76114;BME280;64845;53.086;5.834;2022-12-07T03:57:23;101683.56;;;2.79;80.83
76114;BME280;64845;53.086;5.834;2022-12-07T03:59:51;101680.03;;;2.77;80.43
76114;BME280;64845;53.086;5.834;2022-12-07T04:02:17;101684.47;;;2.80;80.67
76114;BME280;64845;53.086;5.834;2022-12-07T04:04:43;101675.69;;;2.81;80.44
76114;BME280;64845;53.086;5.834;2022-12-07T04:07:08;101678.28;;;2.79;79.94
76114;BME280;64845;53.086;5.834;2022-12-07T04:09:33;101680.94;;;2.78;80.42
76114;BME280;64845;53.086;5.834;2022-12-07T04:11:59;101679.13;;;2.75;80.64
76114;BME280;64845;53.086;5.834;2022-12-07T04:14:24;101678.28;;;2.75;80.29
76114;BME280;64845;53.086;5.834;2022-12-07T04:16:51;101673.88;;;2.74;79.89
76114;BME280;64845;53.086;5.834;2022-12-07T04:19:18;101687.03;;;2.70;80.06
76114;BME280;64845;53.086;5.834;2022-12-07T04:21:44;101679.09;;;2.67;80.23
76114;BME280;64845;53.086;5.834;2022-12-07T04:24:11;101679.09;;;2.66;80.00
76114;BME280;64845;53.086;5.834;2022-12-07T04:26:37;101683.47;;;2.62;80.43
76114;BME280;64845;53.086;5.834;2022-12-07T04:29:02;101675.53;;;2.61;80.50
76114;BME280;64845;53.086;5.834;2022-12-07T04:31:28;101672.00;;;2.59;80.53
76114;BME280;64845;53.086;5.834;2022-12-07T04:33:53;101670.22;;;2.56;80.65
76114;BME280;64845;53.086;5.834;2022-12-07T04:36:19;101663.19;;;2.53;80.22
76114;BME280;64845;53.086;5.834;2022-12-07T04:38:45;101662.31;;;2.54;80.19
76114;BME280;64845;53.086;5.834;2022-12-07T04:41:11;101654.38;;;2.53;80.41
76114;BME280;64845;53.086;5.834;2022-12-07T04:43:36;101656.13;;;2.51;80.00
76114;BME280;64845;53.086;5.834;2022-12-07T04:46:02;101659.59;;;2.45;80.52
76114;BME280;64845;53.086;5.834;2022-12-07T04:48:27;101662.16;;;2.39;79.68
76114;BME280;64845;53.086;5.834;2022-12-07T04:50:53;101665.66;;;2.32;80.16
76114;BME280;64845;53.086;5.834;2022-12-07T04:53:18;101659.44;;;2.28;80.05
76114;BME280;64845;53.086;5.834;2022-12-07T04:55:45;101657.69;;;2.24;80.50
76114;BME280;64845;53.086;5.834;2022-12-07T04:58:11;101665.53;;;2.19;80.14
76114;BME280;64845;53.086;5.834;2022-12-07T05:00:36;101658.47;;;2.15;80.18
76114;BME280;64845;53.086;5.834;2022-12-07T05:03:02;101663.69;;;2.09;80.78
76114;BME280;64845;53.086;5.834;2022-12-07T05:05:27;101679.47;;;2.06;80.05
76114;BME280;64845;53.086;5.834;2022-12-07T05:07:53;101677.69;;;2.05;80.05
76114;BME280;64845;53.086;5.834;2022-12-07T05:10:18;101687.41;;;2.10;80.69
76114;BME280;64845;53.086;5.834;2022-12-07T05:12:44;101681.38;;;2.21;80.70
76114;BME280;64845;53.086;5.834;2022-12-07T05:15:10;101677.00;;;2.26;80.38
76114;BME280;64845;53.086;5.834;2022-12-07T05:17:35;101681.44;;;2.30;81.15
76114;BME280;64845;53.086;5.834;2022-12-07T05:20:01;101671.78;;;2.32;80.96
76114;BME280;64845;53.086;5.834;2022-12-07T05:22:27;101671.81;;;2.37;81.20
76114;BME280;64845;53.086;5.834;2022-12-07T05:24:54;101669.25;;;2.43;81.06
76114;BME280;64845;53.086;5.834;2022-12-07T05:27:20;101670.13;;;2.47;81.39
76114;BME280;64845;53.086;5.834;2022-12-07T05:29:45;101661.41;;;2.51;81.80
76114;BME280;64845;53.086;5.834;2022-12-07T05:32:10;101658.78;;;2.54;81.25
76114;BME280;64845;53.086;5.834;2022-12-07T05:34:36;101655.31;;;2.58;81.52
76114;BME280;64845;53.086;5.834;2022-12-07T05:37:01;101652.69;;;2.61;81.61
76114;BME280;64845;53.086;5.834;2022-12-07T05:39:27;101656.22;;;2.65;81.04
76114;BME280;64845;53.086;5.834;2022-12-07T05:41:52;101663.25;;;2.67;81.65
76114;BME280;64845;53.086;5.834;2022-12-07T05:44:36;101653.59;;;2.66;81.51
76114;BME280;64845;53.086;5.834;2022-12-07T05:47:01;101653.59;;;2.66;81.49
76114;BME280;64845;53.086;5.834;2022-12-07T05:49:27;101644.78;;;2.63;80.88
76114;BME280;64845;53.086;5.834;2022-12-07T05:51:52;101648.28;;;2.62;81.09
76114;BME280;64845;53.086;5.834;2022-12-07T05:54:18;101643.00;;;2.59;81.47
76114;BME280;64845;53.086;5.834;2022-12-07T05:56:43;101640.34;;;2.57;81.75
76114;BME280;64845;53.086;5.834;2022-12-07T05:59:09;101644.72;;;2.55;81.10
76114;BME280;64845;53.086;5.834;2022-12-07T06:04:19;101642.03;;;2.49;81.81
76114;BME280;64845;53.086;5.834;2022-12-07T06:06:44;101640.28;;;2.45;81.36
76114;BME280;64845;53.086;5.834;2022-12-07T06:09:10;101648.13;;;2.40;81.20
76114;BME280;64845;53.086;5.834;2022-12-07T06:11:35;101640.19;;;2.37;81.00
76114;BME280;64845;53.086;5.834;2022-12-07T06:14:19;101638.41;;;2.31;81.32
76114;BME280;64845;53.086;5.834;2022-12-07T06:16:45;101638.38;;;2.28;81.05
76114;BME280;64845;53.086;5.834;2022-12-07T06:19:10;101641.88;;;2.24;81.86
76114;BME280;64845;53.086;5.834;2022-12-07T06:21:36;101642.72;;;2.21;81.37
76114;BME280;64845;53.086;5.834;2022-12-07T06:24:01;101637.41;;;2.18;81.13
76114;BME280;64845;53.086;5.834;2022-12-07T06:26:27;101641.78;;;2.13;80.89
76114;BME280;64845;53.086;5.834;2022-12-07T06:28:52;101640.84;;;2.09;80.97
76114;BME280;64845;53.086;5.834;2022-12-07T06:31:18;101636.44;;;2.05;81.17
76114;BME280;64845;53.086;5.834;2022-12-07T06:33:43;101634.63;;;2.01;81.30
76114;BME280;64845;53.086;5.834;2022-12-07T06:36:09;101634.59;;;1.98;81.52
76114;BME280;64845;53.086;5.834;2022-12-07T06:38:34;101634.53;;;1.92;81.83
76114;BME280;64845;53.086;5.834;2022-12-07T06:41:00;101634.50;;;1.86;81.34
76114;BME280;64845;53.086;5.834;2022-12-07T06:43:25;101641.41;;;1.79;81.41
76114;BME280;64845;53.086;5.834;2022-12-07T06:45:51;101656.31;;;1.75;81.42
76114;BME280;64845;53.086;5.834;2022-12-07T06:48:16;101651.88;;;1.71;81.57
76114;BME280;64845;53.086;5.834;2022-12-07T06:51:14;101659.72;;;1.65;80.99
76114;BME280;64845;53.086;5.834;2022-12-07T06:53:57;101657.88;;;1.56;81.05
76114;BME280;64845;53.086;5.834;2022-12-07T06:56:22;101658.69;;;1.52;81.44
76114;BME280;64845;53.086;5.834;2022-12-07T06:58:48;101658.63;;;1.47;81.57
76114;BME280;64845;53.086;5.834;2022-12-07T07:01:16;101660.38;;;1.47;80.99
76114;BME280;64845;53.086;5.834;2022-12-07T07:03:43;101674.41;;;1.47;81.48
76114;BME280;64845;53.086;5.834;2022-12-07T07:06:09;101666.53;;;1.47;80.99
76114;BME280;64845;53.086;5.834;2022-12-07T07:08:36;101657.75;;;1.48;81.37
76114;BME280;64845;53.086;5.834;2022-12-07T07:11:01;101655.16;;;1.50;81.26
76114;BME280;64845;53.086;5.834;2022-12-07T07:13:27;101653.44;;;1.54;81.43
76114;BME280;64845;53.086;5.834;2022-12-07T07:15:53;101650.84;;;1.55;81.42
76114;BME280;64845;53.086;5.834;2022-12-07T07:18:19;101657.03;;;1.60;81.27
76114;BME280;64845;53.086;5.834;2022-12-07T07:20:44;101653.56;;;1.63;81.26
76114;BME280;64845;53.086;5.834;2022-12-07T07:23:10;101658.88;;;1.68;81.45
76114;BME280;64845;53.086;5.834;2022-12-07T07:25:35;101661.50;;;1.69;81.87
76114;BME280;64845;53.086;5.834;2022-12-07T07:28:01;101650.09;;;1.69;81.38
76114;BME280;64845;53.086;5.834;2022-12-07T07:30:26;101643.94;;;1.68;81.96
76114;BME280;64845;53.086;5.834;2022-12-07T07:32:58;101650.03;;;1.62;81.47
76114;BME280;64845;53.086;5.834;2022-12-07T07:35:25;101650.00;;;1.59;81.68
76114;BME280;64845;53.086;5.834;2022-12-07T07:37:51;101648.19;;;1.54;81.47
76114;BME280;64845;53.086;5.834;2022-12-07T07:40:17;101645.50;;;1.50;81.13
76114;BME280;64845;53.086;5.834;2022-12-07T07:42:42;101649.84;;;1.45;81.67
76114;BME280;64845;53.086;5.834;2022-12-07T07:45:08;101649.81;;;1.42;81.20
76114;BME280;64845;53.086;5.834;2022-12-07T07:47:34;101661.16;;;1.38;81.94
76114;BME280;64845;53.086;5.834;2022-12-07T07:49:59;101654.13;;;1.37;81.54
76114;BME280;64845;53.086;5.834;2022-12-07T07:52:25;101659.38;;;1.35;81.44
76114;BME280;64845;53.086;5.834;2022-12-07T07:54:50;101662.03;;;1.37;81.83
76114;BME280;64845;53.086;5.834;2022-12-07T07:57:16;101674.34;;;1.41;81.28
76114;BME280;64845;53.086;5.834;2022-12-07T07:59:42;101674.41;;;1.44;81.63
76114;BME280;64845;53.086;5.834;2022-12-07T08:02:14;101668.28;;;1.47;81.50
76114;BME280;64845;53.086;5.834;2022-12-07T08:04:40;101677.03;;;1.46;81.64
76114;BME280;64845;53.086;5.834;2022-12-07T08:07:05;101665.66;;;1.45;81.68
76114;BME280;64845;53.086;5.834;2022-12-07T08:09:30;101669.13;;;1.44;81.57
76114;BME280;64845;53.086;5.834;2022-12-07T08:11:56;101665.66;;;1.45;81.82
76114;BME280;64845;53.086;5.834;2022-12-07T08:14:21;101668.28;;;1.47;81.95
76114;BME280;64845;53.086;5.834;2022-12-07T08:16:46;101670.91;;;1.48;81.63
76114;BME280;64845;53.086;5.834;2022-12-07T08:19:12;101669.19;;;1.49;81.78
76114;BME280;64845;53.086;5.834;2022-12-07T08:21:37;101687.63;;;1.49;81.84
76114;BME280;64845;53.086;5.834;2022-12-07T08:24:03;101692.00;;;1.50;81.54
76114;BME280;64845;53.086;5.834;2022-12-07T08:26:28;101706.09;;;1.52;81.84
76114;BME280;64845;53.086;5.834;2022-12-07T08:28:54;101694.81;;;1.65;81.83
76114;BME280;64845;53.086;5.834;2022-12-07T08:31:19;101709.06;;;1.81;81.94
76114;BME280;64845;53.086;5.834;2022-12-07T08:33:47;101709.22;;;1.95;81.82
76114;BME280;64845;53.086;5.834;2022-12-07T08:36:13;101697.03;;;2.07;81.86
76114;BME280;64845;53.086;5.834;2022-12-07T08:38:39;101686.56;;;2.16;81.75
76114;BME280;64845;53.086;5.834;2022-12-07T08:41:05;101672.63;;;2.25;81.92
76114;BME280;64845;53.086;5.834;2022-12-07T08:43:31;101676.19;;;2.33;82.00
76114;BME280;64845;53.086;5.834;2022-12-07T08:46:08;101670.09;;;2.39;82.16
76114;BME280;64845;53.086;5.834;2022-12-07T08:48:38;101670.97;;;2.41;81.93
76114;BME280;64845;53.086;5.834;2022-12-07T08:51:04;101671.00;;;2.42;81.88
76114;BME280;64845;53.086;5.834;2022-12-07T08:53:30;101660.47;;;2.42;81.30
76114;BME280;64845;53.086;5.834;2022-12-07T08:55:57;101663.09;;;2.42;82.06
76114;BME280;64845;53.086;5.834;2022-12-07T08:58:23;101663.09;;;2.42;82.05
76114;BME280;64845;53.086;5.834;2022-12-07T09:00:48;101653.44;;;2.43;81.62
76114;BME280;64845;53.086;5.834;2022-12-07T09:03:14;101655.16;;;2.41;81.47
76114;BME280;64845;53.086;5.834;2022-12-07T09:05:39;101661.28;;;2.37;81.79
76114;BME280;64845;53.086;5.834;2022-12-07T09:08:05;101659.47;;;2.31;81.96
76114;BME280;64845;53.086;5.834;2022-12-07T09:10:31;101656.81;;;2.26;81.75
76114;BME280;64845;53.086;5.834;2022-12-07T09:12:57;101654.16;;;2.22;81.07
76114;BME280;64845;53.086;5.834;2022-12-07T09:15:26;101657.66;;;2.21;81.74
76114;BME280;64845;53.086;5.834;2022-12-07T09:17:52;101656.75;;;2.19;81.52
76114;BME280;64845;53.086;5.834;2022-12-07T09:20:18;101654.06;;;2.17;81.32
76114;BME280;64845;53.086;5.834;2022-12-07T09:22:43;101659.34;;;2.16;81.48
76114;BME280;64845;53.086;5.834;2022-12-07T09:25:08;101665.50;;;2.16;80.79
76114;BME280;64845;53.086;5.834;2022-12-07T09:27:34;101665.53;;;2.18;81.13
76114;BME280;64845;53.086;5.834;2022-12-07T09:29:59;101661.16;;;2.21;81.35
76114;BME280;64845;53.086;5.834;2022-12-07T09:32:24;101663.81;;;2.26;81.68
76114;BME280;64845;53.086;5.834;2022-12-07T09:34:50;101669.16;;;2.32;81.35
76114;BME280;64845;53.086;5.834;2022-12-07T09:37:15;101685.06;;;2.43;81.63
76114;BME280;64845;53.086;5.834;2022-12-07T09:39:41;101674.56;;;2.51;82.10
76114;BME280;64845;53.086;5.834;2022-12-07T09:42:07;101694.00;;;2.59;82.18
76114;BME280;64845;53.086;5.834;2022-12-07T09:44:33;101683.50;;;2.67;82.17
76114;BME280;64845;53.086;5.834;2022-12-07T09:47:00;101689.69;;;2.75;81.82
76114;BME280;64845;53.086;5.834;2022-12-07T09:49:28;101690.63;;;2.80;81.90
76114;BME280;64845;53.086;5.834;2022-12-07T09:52:17;101686.25;;;2.84;82.11
76114;BME280;64845;53.086;5.834;2022-12-07T09:54:46;101688.91;;;2.85;82.21
76114;BME280;64845;53.086;5.834;2022-12-07T09:57:12;101686.25;;;2.87;81.85
76114;BME280;64845;53.086;5.834;2022-12-07T09:59:38;101685.38;;;2.88;81.80
76114;BME280;64845;53.086;5.834;2022-12-07T10:04:57;101674.88;;;2.90;82.29
76114;BME280;64845;53.086;5.834;2022-12-07T10:07:23;101674.00;;;2.92;81.69
76114;BME280;64845;53.086;5.834;2022-12-07T10:09:48;101659.94;;;2.96;82.11
76114;BME280;64845;53.086;5.834;2022-12-07T10:12:14;101666.13;;;3.00;82.12
76114;BME280;64845;53.086;5.834;2022-12-07T10:14:54;101666.16;;;3.06;81.90
76114;BME280;64845;53.086;5.834;2022-12-07T10:20:26;101661.84;;;3.21;81.79
76114;BME280;64845;53.086;5.834;2022-12-07T10:22:55;101660.13;;;3.29;82.18
76114;BME280;64845;53.086;5.834;2022-12-07T10:25:24;101641.66;;;3.35;82.16
76114;BME280;64845;53.086;5.834;2022-12-07T10:28:16;101645.22;;;3.43;81.88
76114;BME280;64845;53.086;5.834;2022-12-07T10:30:58;101648.75;;;3.50;82.45
76114;BME280;64845;53.086;5.834;2022-12-07T10:33:28;101656.69;;;3.58;82.46
76114;BME280;64845;53.086;5.834;2022-12-07T10:35:54;101657.59;;;3.63;81.84
76114;BME280;64845;53.086;5.834;2022-12-07T10:38:20;101654.97;;;3.71;82.07
76114;BME280;64845;53.086;5.834;2022-12-07T10:40:46;101669.09;;;3.76;81.72
76114;BME280;64845;53.086;5.834;2022-12-07T10:51:15;101647.13;;;3.91;82.31
76114;BME280;64845;53.086;5.834;2022-12-07T10:54:10;101647.09;;;3.92;81.80
76114;BME280;64845;53.086;5.834;2022-12-07T10:59:34;101633.03;;;3.93;81.83
76114;BME280;64845;53.086;5.834;2022-12-07T11:02:20;101626.84;;;3.96;81.89
76114;BME280;64845;53.086;5.834;2022-12-07T11:05:04;101624.22;;;3.99;81.44
76114;BME280;64845;53.086;5.834;2022-12-07T11:07:51;101614.53;;;4.00;81.20
76114;BME280;64845;53.086;5.834;2022-12-07T11:13:48;101610.13;;;4.00;81.41
76114;BME280;64845;53.086;5.834;2022-12-07T11:16:47;101599.56;;;3.99;81.41
76114;BME280;64845;53.086;5.834;2022-12-07T11:22:21;101606.59;;;3.92;81.27
76114;BME280;64845;53.086;5.834;2022-12-07T11:25:01;101606.59;;;3.89;81.10
76114;BME280;64845;53.086;5.834;2022-12-07T11:35:26;101596.03;;;3.92;81.46
76114;BME280;64845;53.086;5.834;2022-12-07T11:38:00;101595.13;;;3.99;81.70
76114;BME280;64845;53.086;5.834;2022-12-07T11:40:33;101592.50;;;4.05;81.31
76114;BME280;64845;53.086;5.834;2022-12-07T11:43:25;101587.22;;;4.13;81.60
76114;BME280;64845;53.086;5.834;2022-12-07T11:46:12;101582.81;;;4.21;81.63
76114;BME280;64845;53.086;5.834;2022-12-07T11:51:23;101581.91;;;4.33;81.51
76114;BME280;64845;53.086;5.834;2022-12-07T11:53:52;101584.56;;;4.41;81.66
76114;BME280;64845;53.086;5.834;2022-12-07T11:56:23;101572.19;;;4.46;81.16
76114;BME280;64845;53.086;5.834;2022-12-07T11:59:08;101571.31;;;4.50;81.10
76114;BME280;64845;53.086;5.834;2022-12-07T12:01:53;101565.13;;;4.53;81.05
76114;BME280;64845;53.086;5.834;2022-12-07T12:04:32;101563.38;;;4.55;81.01
76114;BME280;64845;53.086;5.834;2022-12-07T12:06:59;101566.91;;;4.52;80.74
76114;BME280;64845;53.086;5.834;2022-12-07T12:09:29;101562.50;;;4.48;80.60
76114;BME280;64845;53.086;5.834;2022-12-07T12:17:36;101565.16;;;4.48;80.16
76114;BME280;64845;53.086;5.834;2022-12-07T12:20:29;101565.16;;;4.45;80.29
76114;BME280;64845;53.086;5.834;2022-12-07T12:28:20;101548.41;;;4.32;79.60
76114;BME280;64845;53.086;5.834;2022-12-07T12:31:13;101556.38;;;4.28;79.68
76114;BME280;64845;53.086;5.834;2022-12-07T12:33:47;101559.03;;;4.23;79.09
76114;BME280;64845;53.086;5.834;2022-12-07T12:39:13;101539.63;;;4.18;79.67
76114;BME280;64845;53.086;5.834;2022-12-07T12:46:57;101535.25;;;4.15;79.60
76114;BME280;64845;53.086;5.834;2022-12-07T12:51:53;101522.91;;;4.17;79.43
76114;BME280;64845;53.086;5.834;2022-12-07T12:54:27;101523.78;;;4.19;79.34
76114;BME280;64845;53.086;5.834;2022-12-07T12:57:21;101530.84;;;4.20;79.35
76114;BME280;64845;53.086;5.834;2022-12-07T13:02:36;101514.97;;;4.22;79.66
76114;BME280;64845;53.086;5.834;2022-12-07T13:18:23;101515.84;;;4.10;79.41
76114;BME280;64845;53.086;5.834;2022-12-07T13:23:26;101505.28;;;3.99;79.60
76114;BME280;64845;53.086;5.834;2022-12-07T13:28:37;101491.22;;;3.99;79.08
76114;BME280;64845;53.086;5.834;2022-12-07T13:33:42;101484.16;;;3.95;79.57
76114;BME280;64845;53.086;5.834;2022-12-07T13:36:26;101485.06;;;3.92;79.30
76114;BME280;64845;53.086;5.834;2022-12-07T13:41:20;101481.53;;;3.87;79.63
76114;BME280;64845;53.086;5.834;2022-12-07T13:43:53;101482.41;;;3.84;79.04
76114;BME280;64845;53.086;5.834;2022-12-07T13:46:29;101492.09;;;3.84;79.50
76114;BME280;64845;53.086;5.834;2022-12-07T13:48:56;101501.78;;;3.83;79.39
76114;BME280;64845;53.086;5.834;2022-12-07T13:51:27;101500.91;;;3.83;79.68
76114;BME280;64845;53.086;5.834;2022-12-07T13:53:53;101501.78;;;3.83;79.23
76114;BME280;64845;53.086;5.834;2022-12-07T13:56:35;101500.03;;;3.81;79.52
76114;BME280;64845;53.086;5.834;2022-12-07T13:59:01;101499.16;;;3.71;79.25
76114;BME280;64845;53.086;5.834;2022-12-07T14:01:28;101493.88;;;3.58;79.28
76114;BME280;64845;53.086;5.834;2022-12-07T14:03:55;101473.59;;;3.36;79.47
76114;BME280;64845;53.086;5.834;2022-12-07T14:06:26;101454.19;;;3.16;79.06
76114;BME280;64845;53.086;5.834;2022-12-07T14:09:19;101464.75;;;3.07;79.47
76114;BME280;64845;53.086;5.834;2022-12-07T14:11:47;101464.75;;;3.02;79.26
76114;BME280;64845;53.086;5.834;2022-12-07T14:14:18;101454.16;;;2.93;79.58
76114;BME280;64845;53.086;5.834;2022-12-07T14:16:55;101451.50;;;2.87;79.41
76114;BME280;64845;53.086;5.834;2022-12-07T14:22:33;101448.84;;;2.79;79.44
76114;BME280;64845;53.086;5.834;2022-12-07T14:25:23;101446.19;;;2.76;80.13
76114;BME280;64845;53.086;5.834;2022-12-07T14:27:58;101440.94;;;2.75;79.78
76114;BME280;64845;53.086;5.834;2022-12-07T14:30:33;101448.81;;;2.71;79.93
76114;BME280;64845;53.086;5.834;2022-12-07T14:33:01;101441.75;;;2.63;79.73
76114;BME280;64845;53.086;5.834;2022-12-07T14:35:28;101443.50;;;2.57;80.27
76114;BME280;64845;53.086;5.834;2022-12-07T14:37:53;101431.19;;;2.55;79.81
76114;BME280;64845;53.086;5.834;2022-12-07T14:40:24;101433.81;;;2.52;80.13
76114;BME280;64845;53.086;5.834;2022-12-07T14:42:52;101436.44;;;2.49;79.79
76114;BME280;64845;53.086;5.834;2022-12-07T14:45:21;101437.31;;;2.48;80.13
76114;BME280;64845;53.086;5.834;2022-12-07T14:47:48;101428.50;;;2.46;79.62
76114;BME280;64845;53.086;5.834;2022-12-07T14:50:15;101426.72;;;2.40;80.32
76114;BME280;64845;53.086;5.834;2022-12-07T14:52:43;101425.84;;;2.36;80.60
76114;BME280;64845;53.086;5.834;2022-12-07T14:55:20;101420.56;;;2.35;80.30
76114;BME280;64845;53.086;5.834;2022-12-07T14:57:48;101415.28;;;2.33;80.83
76114;BME280;64845;53.086;5.834;2022-12-07T15:00:14;101421.44;;;2.32;81.16
76114;BME280;64845;53.086;5.834;2022-12-07T15:02:40;101414.41;;;2.30;81.02